createdAt,value
2023-04-16T00:01:36.040Z,13.05
2023-04-16T00:04:03.228Z,12.18
2023-04-16T00:06:30.349Z,13.20
2023-04-16T00:08:57.084Z,10.48
2023-04-16T00:11:24.131Z,14.38
2023-04-16T00:13:50.858Z,9.73
2023-04-16T00:16:17.725Z,10.45
2023-04-16T00:18:44.486Z,14.13
2023-04-16T00:21:11.236Z,10.48
2023-04-16T00:23:38.089Z,10.23
2023-04-16T00:26:04.889Z,10.90
2023-04-16T00:28:31.588Z,13.50
2023-04-16T00:30:58.588Z,10.95
2023-04-16T00:33:25.494Z,17.02
2023-04-16T00:35:52.191Z,10.77
2023-04-16T00:38:18.826Z,13.52
2023-04-16T00:40:45.614Z,12.02
2023-04-16T00:43:12.375Z,13.18
2023-04-16T00:45:39.178Z,11.40
2023-04-16T00:48:05.992Z,10.00
2023-04-16T00:50:33.659Z,18.67
2023-04-16T00:53:01.675Z,13.25
2023-04-16T00:55:28.433Z,14.40
2023-04-16T00:57:55.185Z,9.88
2023-04-16T01:00:22.285Z,16.92
2023-04-16T01:02:49.157Z,14.05
2023-04-16T01:05:16.167Z,12.45
2023-04-16T01:07:42.819Z,13.50
2023-04-16T01:10:09.627Z,16.38
2023-04-16T01:12:36.317Z,12.20
2023-04-16T01:15:03.573Z,11.15
2023-04-16T01:17:30.362Z,12.02
2023-04-16T01:20:00.859Z,10.27
2023-04-16T01:24:54.624Z,12.35
2023-04-16T01:27:21.252Z,14.35
2023-04-16T01:29:47.996Z,12.98
2023-04-16T01:32:14.674Z,11.05
2023-04-16T01:34:41.505Z,12.05
2023-04-16T01:37:08.314Z,13.02
2023-04-16T01:39:35.036Z,12.30
2023-04-16T01:42:02.446Z,12.85
2023-04-16T01:44:29.225Z,13.75
2023-04-16T01:46:55.953Z,14.20
2023-04-16T01:49:23.501Z,13.15
2023-04-16T01:51:50.212Z,11.68
2023-04-16T01:54:16.838Z,12.63
2023-04-16T01:56:43.800Z,12.60
2023-04-16T01:59:10.875Z,11.00
2023-04-16T02:01:38.152Z,11.18
2023-04-16T02:04:05.449Z,10.52
2023-04-16T02:06:32.245Z,11.63
2023-04-16T02:08:58.911Z,10.48
2023-04-16T02:11:26.408Z,11.50
2023-04-16T02:13:53.106Z,11.13
2023-04-16T02:16:19.853Z,13.07
2023-04-16T02:18:46.565Z,8.75
2023-04-16T02:21:13.976Z,10.57
2023-04-16T02:23:41.468Z,9.95
2023-04-16T02:26:08.289Z,10.65
2023-04-16T02:28:34.963Z,14.82
2023-04-16T02:31:01.692Z,13.45
2023-04-16T02:33:28.754Z,9.13
2023-04-16T02:35:55.602Z,11.18
2023-04-16T02:38:22.299Z,7.95
2023-04-16T02:40:49.092Z,9.18
2023-04-16T02:43:15.826Z,7.30
2023-04-16T02:45:42.611Z,8.02
2023-04-16T02:48:09.729Z,11.18
2023-04-16T02:50:36.492Z,9.75
2023-04-16T02:53:04.322Z,8.32
2023-04-16T02:55:31.050Z,8.82
2023-04-16T02:57:57.768Z,7.38
2023-04-16T03:00:24.526Z,5.93
2023-04-16T03:02:51.443Z,11.88
2023-04-16T03:05:18.539Z,8.93
2023-04-16T03:07:45.411Z,7.07
2023-04-16T03:10:13.372Z,8.80
2023-04-16T03:12:40.073Z,8.80
2023-04-16T03:15:07.228Z,9.20
2023-04-16T03:17:34.175Z,6.18
2023-04-16T03:20:00.972Z,5.78
2023-04-16T03:22:27.609Z,9.32
2023-04-16T03:24:54.409Z,8.68
2023-04-16T03:27:21.119Z,8.63
2023-04-16T03:29:47.788Z,9.13
2023-04-16T03:32:14.754Z,7.65
2023-04-16T03:34:41.424Z,6.85
2023-04-16T03:37:11.991Z,6.38
2023-04-16T03:42:05.294Z,7.53
2023-04-16T03:44:32.000Z,9.05
2023-04-16T03:46:58.739Z,7.55
2023-04-16T03:49:25.868Z,6.70
2023-04-16T03:51:52.591Z,7.35
2023-04-16T03:54:22.072Z,6.40
2023-04-16T03:56:49.483Z,6.47
2023-04-16T03:59:16.174Z,9.23
2023-04-16T04:01:42.976Z,6.13
2023-04-16T04:04:10.115Z,6.57
2023-04-16T04:06:36.920Z,6.93
2023-04-16T04:09:03.992Z,6.82
2023-04-16T04:11:30.780Z,8.68
2023-04-16T04:13:57.442Z,8.20
2023-04-16T04:16:24.217Z,9.30
2023-04-16T04:18:50.973Z,7.32
2023-04-16T04:21:17.606Z,10.77
2023-04-16T04:23:44.364Z,6.65
2023-04-16T04:26:11.120Z,9.10
2023-04-16T04:28:37.884Z,7.97
2023-04-16T04:31:04.689Z,8.90
2023-04-16T04:33:31.663Z,11.05
2023-04-16T04:35:58.517Z,7.63
2023-04-16T04:38:25.414Z,6.45
2023-04-16T04:40:52.999Z,7.20
2023-04-16T04:43:20.755Z,6.55
2023-04-16T04:45:49.145Z,8.65
2023-04-16T04:48:16.513Z,6.57
2023-04-16T04:50:44.527Z,7.18
2023-04-16T04:53:11.509Z,6.43
2023-04-16T04:55:38.830Z,10.55
2023-04-16T04:58:06.857Z,8.02
2023-04-16T05:00:34.754Z,7.00
2023-04-16T05:03:06.861Z,9.05
2023-04-16T05:05:33.662Z,10.35
2023-04-16T05:08:00.344Z,8.15
2023-04-16T05:10:27.533Z,9.60
2023-04-16T05:12:54.282Z,10.88
2023-04-16T05:15:21.194Z,10.23
2023-04-16T05:17:47.970Z,8.25
2023-04-16T05:20:14.835Z,9.18
2023-04-16T05:22:41.587Z,9.63
2023-04-16T05:25:08.872Z,9.15
2023-04-16T05:27:36.345Z,8.57
2023-04-16T05:30:03.668Z,11.43
2023-04-16T05:32:30.575Z,8.63
2023-04-16T05:34:57.298Z,11.88
2023-04-16T05:37:23.975Z,11.40
2023-04-16T05:39:50.742Z,12.35
2023-04-16T05:42:17.456Z,10.48
2023-04-16T05:44:44.081Z,14.13
2023-04-16T05:47:10.917Z,11.45
2023-04-16T05:49:37.577Z,13.40
2023-04-16T05:52:05.388Z,17.02
2023-04-16T05:54:32.040Z,17.27
2023-04-16T05:56:59.487Z,11.40
2023-04-16T05:59:26.208Z,10.05
2023-04-16T06:01:53.005Z,12.30
2023-04-16T06:04:19.854Z,15.93
2023-04-16T06:06:46.750Z,12.82
2023-04-16T06:09:13.481Z,17.60
2023-04-16T06:11:40.305Z,15.85
2023-04-16T06:14:07.185Z,16.70
2023-04-16T06:16:33.950Z,18.00
2023-04-16T06:19:00.857Z,18.55
2023-04-16T06:21:28.747Z,13.25
2023-04-16T06:23:56.222Z,16.58
2023-04-16T06:26:23.003Z,13.05
2023-04-16T06:28:50.316Z,14.80
2023-04-16T06:31:17.118Z,12.35
2023-04-16T06:33:43.875Z,13.98
2023-04-16T06:36:11.528Z,13.25
2023-04-16T06:38:38.496Z,14.30
2023-04-16T06:41:05.388Z,12.75
2023-04-16T06:43:33.551Z,11.77
2023-04-16T06:46:00.625Z,12.63
2023-04-16T06:48:27.698Z,14.73
2023-04-16T06:50:55.193Z,10.98
2023-04-16T06:53:22.143Z,17.17
2023-04-16T06:55:48.803Z,15.38
2023-04-16T06:58:15.630Z,23.42
2023-04-16T07:00:42.346Z,21.48
2023-04-16T07:03:09.167Z,15.10
2023-04-16T07:05:36.054Z,15.75
2023-04-16T07:08:02.774Z,9.55
2023-04-16T07:10:29.518Z,16.58
2023-04-16T07:12:56.249Z,11.10
2023-04-16T07:15:22.923Z,14.90
2023-04-16T07:17:49.741Z,14.60
2023-04-16T07:20:16.494Z,18.95
2023-04-16T07:22:43.543Z,18.55
2023-04-16T07:25:10.654Z,16.20
2023-04-16T07:27:37.308Z,11.18
2023-04-16T07:30:04.359Z,14.70
2023-04-16T07:32:31.314Z,9.88
2023-04-16T07:34:58.088Z,10.48
2023-04-16T07:37:24.770Z,9.68
2023-04-16T07:39:52.835Z,6.43
2023-04-16T07:42:19.858Z,7.03
2023-04-16T07:44:46.550Z,7.80
2023-04-16T07:47:13.361Z,7.00
2023-04-16T07:49:40.078Z,7.78
2023-04-16T07:52:06.842Z,4.80
2023-04-16T07:57:00.420Z,7.63
2023-04-16T07:59:27.615Z,7.13
2023-04-16T08:01:54.801Z,10.20
2023-04-16T08:04:25.777Z,8.40
2023-04-16T08:06:53.073Z,7.28
2023-04-16T08:09:21.761Z,7.78
2023-04-16T08:11:49.906Z,6.38
2023-04-16T08:14:17.493Z,4.70
2023-04-16T08:16:44.453Z,7.78
2023-04-16T08:19:12.561Z,6.95
2023-04-16T08:21:39.598Z,5.22
2023-04-16T08:24:06.735Z,4.82
2023-04-16T08:26:33.414Z,5.10
2023-04-16T08:29:00.142Z,5.43
2023-04-16T08:31:27.071Z,8.35
2023-04-16T08:33:53.779Z,6.82
2023-04-16T08:36:20.839Z,5.43
2023-04-16T18:26:25.278Z,6.45
2023-04-16T18:28:52.725Z,8.32
2023-04-16T18:31:21.357Z,8.07
2023-04-16T18:33:56.835Z,6.22
2023-04-16T18:36:24.952Z,6.97
2023-04-16T18:39:00.876Z,5.40
2023-04-16T18:41:29.145Z,6.03
2023-04-16T18:43:56.024Z,5.28
2023-04-16T18:46:22.885Z,8.50
2023-04-16T18:48:49.811Z,5.78
2023-04-16T18:51:16.834Z,8.02
2023-04-16T18:53:45.429Z,7.28
2023-04-16T18:56:12.673Z,5.95
2023-04-16T18:58:39.407Z,5.18
2023-04-16T19:01:10.905Z,5.55
2023-04-16T19:03:38.168Z,6.15
2023-04-16T19:06:05.892Z,6.82
2023-04-16T19:08:33.058Z,6.60
2023-04-16T19:10:59.964Z,7.10
2023-04-16T19:13:26.668Z,7.07
2023-04-16T19:16:00.400Z,6.78
2023-04-16T19:18:27.240Z,4.30
2023-04-16T19:21:01.181Z,5.60
2023-04-16T19:23:28.714Z,8.15
2023-04-16T19:25:58.669Z,5.32
2023-04-16T19:28:25.813Z,6.63
2023-04-16T19:30:53.625Z,5.90
2023-04-16T19:33:20.499Z,6.43
2023-04-16T19:35:47.594Z,5.28
2023-04-16T19:38:14.526Z,5.55
2023-04-16T19:40:45.031Z,6.43
2023-04-16T19:43:11.761Z,7.38
2023-04-16T19:48:14.837Z,5.03
2023-04-16T19:50:42.530Z,5.78
2023-04-16T19:53:09.593Z,5.20
2023-04-16T19:55:36.905Z,8.50
2023-04-16T19:58:06.867Z,5.63
2023-04-16T20:00:36.109Z,8.50
2023-04-16T20:03:02.810Z,5.63
2023-04-16T20:05:29.984Z,4.82
2023-04-16T20:07:57.119Z,5.68
2023-04-16T20:10:24.629Z,5.95
2023-04-16T20:12:51.453Z,5.45
2023-04-16T20:15:18.988Z,5.00
2023-04-16T20:17:46.134Z,5.18
2023-04-16T20:20:15.644Z,5.65
2023-04-16T20:22:43.722Z,7.03
2023-04-16T20:25:10.586Z,7.72
2023-04-16T20:27:37.398Z,8.02
2023-04-16T20:30:06.233Z,4.40
2023-04-16T20:32:33.303Z,5.70
2023-04-16T20:35:00.258Z,4.28
2023-04-16T20:37:29.112Z,5.20
2023-04-16T20:39:56.391Z,4.78
2023-04-16T20:42:23.485Z,4.75
2023-04-16T20:44:56.278Z,6.97
2023-04-16T20:47:23.334Z,5.75
2023-04-16T20:49:50.592Z,5.35
2023-04-16T20:52:17.470Z,6.47
2023-04-16T20:54:44.381Z,4.70
2023-04-16T20:57:11.158Z,5.28
2023-04-16T20:59:37.849Z,6.85
2023-04-16T21:02:04.880Z,5.28
2023-04-16T21:04:31.888Z,4.80
2023-04-16T21:06:58.631Z,5.47
2023-04-16T21:09:25.381Z,6.07
2023-04-16T21:11:52.095Z,4.60
2023-04-16T21:14:18.803Z,6.50
2023-04-16T21:16:45.555Z,4.30
2023-04-16T21:19:12.392Z,5.82
2023-04-16T21:21:39.221Z,7.03
2023-04-16T21:24:06.287Z,5.20
2023-04-16T21:26:33.002Z,7.60
2023-04-16T21:28:59.737Z,5.78
2023-04-16T21:31:26.697Z,8.48
2023-04-16T21:33:53.698Z,8.02
2023-04-16T21:36:20.514Z,6.18
2023-04-16T21:38:47.235Z,5.18
2023-04-16T21:41:13.968Z,8.45
2023-04-16T21:43:40.596Z,10.43
2023-04-16T21:46:07.284Z,6.82
2023-04-16T21:48:34.119Z,5.95
2023-04-16T21:51:06.439Z,7.43
2023-04-16T21:53:33.854Z,6.32
2023-04-16T21:56:00.704Z,6.85
2023-04-16T21:58:27.466Z,9.40
2023-04-16T22:00:54.361Z,8.13
2023-04-16T22:03:27.727Z,10.20
2023-04-16T22:06:01.075Z,8.93
2023-04-16T22:08:31.535Z,6.78
2023-04-16T22:10:59.558Z,8.80
2023-04-16T22:13:26.540Z,6.68
2023-04-16T22:15:54.699Z,6.90
2023-04-16T22:18:26.842Z,9.43
2023-04-16T22:20:55.032Z,6.88
2023-04-16T22:23:24.753Z,6.22
2023-04-16T22:25:54.271Z,11.55
2023-04-16T22:28:20.909Z,8.35
2023-04-16T22:30:47.584Z,7.03
2023-04-16T22:33:14.389Z,6.70
2023-04-16T22:38:25.423Z,5.60
2023-04-16T22:40:52.167Z,9.27
2023-04-16T22:43:18.947Z,8.45
2023-04-16T22:45:46.472Z,5.30
2023-04-16T22:48:13.393Z,7.53
2023-04-16T22:50:41.269Z,7.47
2023-04-16T22:53:07.932Z,5.30
2023-04-16T22:55:34.561Z,8.90
2023-04-16T22:58:01.746Z,7.95
2023-04-16T23:00:28.464Z,7.10
2023-04-16T23:02:55.247Z,7.47
2023-04-16T23:05:22.115Z,7.55
2023-04-16T23:07:48.790Z,8.63
2023-04-16T23:10:15.500Z,8.20
2023-04-16T23:12:42.131Z,6.90
2023-04-16T23:15:09.129Z,8.80
2023-04-16T23:17:36.067Z,8.32
2023-04-16T23:20:05.360Z,8.75
2023-04-16T23:22:32.137Z,7.82
2023-04-16T23:24:58.772Z,5.63
2023-04-16T23:27:25.468Z,6.97
2023-04-16T23:29:52.199Z,6.15
2023-04-16T23:32:18.892Z,6.53
2023-04-16T23:34:45.964Z,8.27
2023-04-16T23:37:12.676Z,5.60
2023-04-16T23:39:39.308Z,8.45
2023-04-16T23:42:06.135Z,7.95
2023-04-16T23:44:33.052Z,9.73
2023-04-16T23:46:59.920Z,9.73
2023-04-16T23:49:26.626Z,7.68
2023-04-16T23:51:53.336Z,8.35
2023-04-16T23:54:21.091Z,7.95
2023-04-16T23:56:48.082Z,11.10
2023-04-16T23:59:14.849Z,7.95
